createdAt,value
2018-12-05T00:00:09.272Z,4.07
2018-12-05T00:02:37.228Z,4.77
2018-12-05T00:05:05.367Z,2.90
2018-12-05T00:07:33.458Z,5.33
2018-12-05T00:10:01.470Z,5.90
2018-12-05T00:12:29.417Z,4.63
2018-12-05T00:14:57.366Z,3.70
2018-12-05T00:17:25.336Z,1.93
2018-12-05T00:19:53.300Z,3.63
2018-12-05T00:22:21.353Z,5.37
2018-12-05T00:24:49.333Z,3.17
2018-12-05T00:27:17.282Z,4.83
2018-12-05T00:29:45.324Z,4.70
2018-12-05T00:32:13.296Z,3.13
2018-12-05T00:34:41.284Z,3.50
2018-12-05T00:37:09.256Z,3.47
2018-12-05T00:39:37.213Z,2.23
2018-12-05T00:42:05.177Z,3.03
2018-12-05T00:44:33.142Z,4.17
2018-12-05T00:47:01.189Z,5.37
2018-12-05T00:49:29.164Z,7.37
2018-12-05T00:51:57.127Z,1.50
2018-12-05T00:54:25.109Z,1.70
2018-12-05T00:56:53.197Z,4.27
2018-12-05T00:59:21.162Z,2.97
2018-12-05T01:01:49.166Z,6.43
2018-12-05T01:04:17.203Z,3.77
2018-12-05T01:06:45.164Z,4.53
2018-12-05T01:09:13.126Z,3.23
2018-12-05T01:11:41.217Z,3.60
2018-12-05T01:14:09.184Z,4.93
2018-12-05T01:16:37.159Z,5.43
2018-12-05T01:19:05.131Z,3.37
2018-12-05T01:21:33.096Z,4.50
2018-12-05T01:24:01.060Z,2.50
2018-12-05T01:26:29.026Z,2.23
2018-12-05T01:28:57.065Z,3.27
2018-12-05T01:31:25.042Z,4.20
2018-12-05T01:33:52.982Z,4.30
2018-12-05T01:36:21.028Z,7.33
2018-12-05T01:38:48.989Z,3.97
2018-12-05T01:41:16.945Z,2.23
2018-12-05T01:43:46.805Z,4.43
2018-12-05T01:46:14.866Z,7.20
2018-12-05T01:48:42.814Z,3.40
2018-12-05T01:51:10.760Z,7.10
2018-12-05T01:53:38.799Z,6.30
2018-12-05T01:56:06.833Z,3.80
2018-12-05T01:58:34.785Z,2.90
2018-12-05T02:01:02.750Z,6.43
2018-12-05T02:03:30.788Z,6.00
2018-12-05T02:05:58.728Z,4.63
2018-12-05T02:08:26.692Z,6.63
2018-12-05T02:10:54.685Z,8.03
2018-12-05T02:13:22.629Z,9.73
2018-12-05T02:15:50.584Z,8.13
2018-12-05T02:18:18.540Z,9.47
2018-12-05T02:20:46.501Z,12.90
2018-12-05T02:23:14.496Z,15.23
2018-12-05T02:25:42.449Z,9.33
2018-12-05T02:28:10.410Z,10.60
2018-12-05T02:30:38.421Z,15.80
2018-12-05T02:33:06.380Z,14.70
2018-12-05T02:35:34.337Z,12.43
2018-12-05T02:38:02.325Z,16.53
2018-12-05T02:40:30.299Z,16.40
2018-12-05T02:42:58.319Z,11.57
2018-12-05T02:45:26.288Z,9.50
2018-12-05T02:47:54.242Z,13.40
2018-12-05T02:50:22.199Z,15.50
2018-12-05T02:52:50.212Z,13.03
2018-12-05T02:55:18.165Z,20.97
2018-12-05T02:57:46.133Z,14.40
2018-12-05T03:00:14.134Z,17.00
2018-12-05T03:02:42.093Z,11.13
2018-12-05T03:05:10.397Z,13.10
2018-12-05T03:07:38.372Z,16.07
2018-12-05T03:10:06.389Z,17.17
2018-12-05T03:12:34.402Z,13.83
2018-12-05T03:15:02.409Z,8.93
2018-12-05T03:17:30.371Z,11.07
2018-12-05T03:19:58.332Z,11.07
2018-12-05T03:22:26.296Z,14.70
2018-12-05T03:24:54.256Z,12.80
2018-12-05T03:27:22.221Z,11.70
2018-12-05T03:29:50.296Z,19.60
2018-12-05T03:32:18.285Z,16.37
2018-12-05T03:34:46.245Z,20.53
2018-12-05T03:37:14.433Z,16.50
2018-12-05T03:39:42.453Z,13.50
2018-12-05T03:42:10.666Z,17.20
2018-12-05T03:44:38.648Z,11.53
2018-12-05T03:47:06.613Z,10.23
2018-12-05T03:49:34.561Z,12.60
2018-12-05T03:52:02.536Z,12.30
2018-12-05T03:54:30.504Z,12.20
2018-12-05T03:56:58.486Z,13.33
2018-12-05T03:59:26.505Z,15.43
2018-12-05T04:01:54.469Z,16.60
2018-12-05T04:04:22.431Z,15.20
2018-12-05T04:06:50.414Z,14.30
2018-12-05T04:09:18.381Z,13.57
2018-12-05T04:11:46.361Z,17.50
2018-12-05T04:14:14.345Z,12.50
2018-12-05T04:16:42.350Z,17.27
2018-12-05T04:19:10.302Z,14.67
2018-12-05T04:21:38.273Z,14.67
2018-12-05T04:24:06.234Z,13.73
2018-12-05T04:26:34.190Z,17.83
2018-12-05T04:29:02.154Z,12.70
2018-12-05T04:31:30.121Z,15.83
2018-12-05T04:33:58.078Z,13.07
2018-12-05T04:36:26.091Z,14.87
2018-12-05T04:38:54.118Z,17.17
2018-12-05T04:41:22.071Z,15.73
2018-12-05T04:43:50.033Z,15.90
2018-12-05T04:46:17.988Z,18.67
2018-12-05T04:48:45.957Z,10.37
2018-12-05T04:51:13.939Z,14.90
2018-12-05T04:53:41.902Z,15.13
2018-12-05T04:56:09.845Z,12.13
2018-12-05T04:58:37.906Z,12.67
2018-12-05T05:01:05.869Z,16.37
2018-12-05T05:03:33.825Z,12.43
2018-12-05T05:06:01.794Z,15.43
2018-12-05T05:08:29.750Z,13.43
2018-12-05T05:10:57.761Z,13.17
2018-12-05T05:13:25.737Z,14.43
2018-12-05T05:15:53.788Z,17.83
2018-12-05T05:18:21.754Z,18.07
2018-12-05T05:20:49.725Z,22.07
2018-12-05T05:23:17.676Z,15.47
2018-12-05T05:25:45.789Z,16.60
2018-12-05T05:28:13.761Z,14.43
2018-12-05T05:30:41.803Z,17.53
2018-12-05T05:33:09.752Z,21.23
2018-12-05T05:35:37.749Z,15.40
2018-12-05T05:38:05.717Z,15.20
2018-12-05T05:40:33.682Z,20.60
2018-12-05T05:43:01.713Z,11.23
2018-12-05T05:45:29.665Z,11.93
2018-12-05T05:47:57.613Z,14.93
2018-12-05T05:50:25.608Z,15.33
2018-12-05T05:52:53.559Z,18.73
2018-12-05T05:55:21.533Z,13.07
2018-12-05T05:57:49.501Z,14.83
2018-12-05T06:00:17.504Z,14.00
2018-12-05T06:02:45.491Z,14.10
2018-12-05T06:05:13.465Z,12.47
2018-12-05T06:07:41.423Z,14.80
2018-12-05T06:10:09.496Z,16.47
2018-12-05T06:12:37.445Z,18.90
2018-12-05T06:15:06.252Z,15.50
2018-12-05T06:17:34.202Z,19.97
2018-12-05T06:20:02.234Z,28.93
2018-12-05T06:22:30.206Z,25.27
2018-12-05T06:24:58.169Z,21.07
2018-12-05T06:27:26.192Z,16.40
2018-12-05T06:29:54.158Z,19.80
2018-12-05T06:32:22.099Z,13.07
2018-12-05T06:34:50.060Z,17.53
2018-12-05T06:37:18.045Z,16.73
2018-12-05T06:39:45.988Z,15.27
2018-12-05T06:42:14.044Z,11.80
2018-12-05T06:44:42.005Z,14.40
2018-12-05T06:47:10.001Z,15.70
2018-12-05T06:49:37.977Z,16.90
2018-12-05T06:52:05.941Z,16.27
2018-12-05T06:54:33.897Z,15.30
2018-12-05T06:57:01.856Z,15.90
2018-12-05T06:59:29.900Z,14.33
2018-12-05T07:01:57.905Z,17.10
2018-12-05T07:04:25.866Z,15.57
2018-12-05T07:06:54.003Z,15.57
2018-12-05T07:09:22.030Z,14.37
2018-12-05T07:11:49.992Z,21.73
2018-12-05T07:14:17.957Z,13.30
2018-12-05T07:16:46.014Z,17.20
2018-12-05T07:19:13.982Z,16.23
2018-12-05T07:21:46.888Z,20.37
2018-12-05T07:24:14.863Z,15.43
2018-12-05T07:26:42.821Z,15.27
2018-12-05T07:29:10.776Z,19.93
2018-12-05T07:31:38.749Z,19.33
2018-12-05T07:34:06.704Z,20.90
2018-12-05T07:36:34.656Z,15.73
2018-12-05T07:39:04.398Z,24.17
2018-12-05T07:41:32.369Z,25.87
2018-12-05T07:44:00.336Z,20.00
2018-12-05T07:46:28.404Z,21.70
2018-12-05T07:48:56.409Z,21.77
2018-12-05T07:51:24.471Z,22.83
2018-12-05T07:53:52.428Z,21.40
2018-12-05T07:56:20.401Z,28.13
2018-12-05T07:58:51.487Z,21.57
2018-12-05T08:01:21.179Z,30.87
2018-12-05T08:03:52.503Z,29.07
2018-12-05T08:06:20.484Z,30.53
2018-12-05T08:08:48.461Z,23.80
2018-12-05T08:11:16.436Z,35.37
2018-12-05T08:13:44.400Z,44.43
2018-12-05T08:16:12.466Z,40.97
2018-12-05T08:18:40.716Z,40.53
2018-12-05T08:21:08.706Z,44.03
2018-12-05T08:23:36.761Z,39.27
2018-12-05T08:26:04.730Z,32.90
2018-12-05T08:28:32.702Z,50.73
2018-12-05T08:31:00.692Z,54.93
2018-12-05T08:33:28.656Z,61.57
2018-12-05T08:35:56.659Z,51.10
2018-12-05T08:38:24.631Z,42.70
2018-12-05T08:40:52.681Z,25.23
2018-12-05T08:43:20.649Z,27.13
2018-12-05T08:45:48.653Z,21.13
2018-12-05T08:48:16.684Z,37.87
2018-12-05T08:50:44.652Z,27.23
2018-12-05T08:53:12.636Z,27.10
2018-12-05T08:55:40.657Z,20.60
2018-12-05T08:58:08.677Z,16.57
2018-12-05T09:00:36.683Z,23.07
2018-12-05T09:03:04.651Z,16.43
2018-12-05T09:05:32.701Z,14.33
2018-12-05T09:08:00.696Z,13.07
2018-12-05T09:10:28.740Z,13.50
2018-12-05T09:12:56.713Z,10.63
2018-12-05T09:15:24.769Z,12.97
2018-12-05T09:17:52.733Z,11.10
2018-12-05T09:20:20.740Z,10.33
2018-12-05T09:22:48.782Z,10.43
2018-12-05T09:25:16.838Z,12.87
2018-12-05T09:27:44.909Z,12.17
2018-12-05T09:30:13.010Z,11.13
2018-12-05T09:32:41.166Z,13.17
2018-12-05T09:35:09.259Z,17.23
2018-12-05T09:37:37.323Z,19.03
2018-12-05T09:40:05.836Z,18.97
2018-12-05T09:42:33.793Z,21.20
2018-12-05T09:45:01.858Z,19.13
2018-12-05T09:47:29.908Z,15.57
2018-12-05T09:49:57.856Z,14.03
2018-12-05T09:52:25.849Z,11.73
2018-12-05T09:54:54.013Z,15.57
2018-12-05T09:57:22.080Z,15.63
2018-12-05T09:59:50.060Z,11.47
2018-12-05T10:02:18.122Z,13.43
2018-12-05T10:04:46.184Z,15.20
2018-12-05T10:07:14.366Z,12.00
2018-12-05T10:09:43.363Z,10.23
2018-12-05T10:12:11.544Z,15.03
2018-12-05T10:14:39.724Z,12.13
2018-12-05T10:17:07.708Z,9.30
2018-12-05T10:19:35.741Z,14.20
2018-12-05T10:22:03.936Z,11.40
2018-12-05T10:24:31.898Z,15.37
2018-12-05T10:26:59.911Z,10.87
2018-12-05T10:29:27.948Z,17.80
2018-12-05T10:31:55.918Z,14.67
2018-12-05T10:34:23.877Z,16.30
2018-12-05T10:36:51.951Z,15.40
2018-12-05T10:39:20.020Z,20.27
2018-12-05T10:41:47.972Z,16.77
2018-12-05T10:44:16.061Z,18.87
2018-12-05T10:46:44.155Z,26.83
2018-12-05T10:49:12.209Z,27.07
2018-12-05T10:51:40.317Z,20.90
2018-12-05T10:54:08.272Z,22.63
2018-12-05T10:56:36.344Z,21.47
2018-12-05T10:59:04.324Z,23.53
2018-12-05T11:01:38.172Z,40.97
2018-12-05T11:04:08.141Z,52.20
2018-12-05T11:06:42.018Z,54.93
2018-12-05T11:09:15.916Z,40.83
2018-12-05T11:11:49.510Z,33.97
2018-12-05T11:14:23.425Z,33.97
2018-12-05T11:16:53.365Z,30.57
2018-12-05T11:19:27.298Z,42.97
2018-12-05T11:25:01.521Z,28.90
2018-12-05T11:27:29.492Z,30.90
2018-12-05T11:29:57.492Z,25.47
2018-12-05T11:32:30.352Z,25.43
2018-12-05T11:34:58.375Z,24.90
2018-12-05T11:37:26.384Z,30.53
2018-12-05T11:39:54.367Z,27.63
2018-12-05T11:42:27.337Z,25.50
2018-12-05T11:44:55.333Z,27.73
2018-12-05T11:47:23.310Z,23.37
2018-12-05T11:49:51.348Z,23.20
2018-12-05T11:52:19.425Z,31.50
2018-12-05T11:54:47.389Z,24.70
2018-12-05T11:57:15.353Z,21.07
2018-12-05T11:59:43.469Z,29.07
2018-12-05T12:02:11.642Z,30.47
2018-12-05T12:04:39.771Z,28.43
2018-12-05T12:07:07.752Z,25.63
2018-12-05T12:09:35.837Z,27.70
2018-12-05T12:12:03.988Z,23.23
2018-12-05T12:14:31.951Z,28.17
2018-12-05T12:17:00.032Z,24.60
2018-12-05T12:19:28.098Z,29.67
2018-12-05T12:21:56.295Z,23.23
2018-12-05T12:24:24.268Z,22.67
2018-12-05T12:26:52.273Z,30.13
2018-12-05T12:29:20.304Z,24.33
2018-12-05T12:31:48.264Z,25.07
2018-12-05T12:34:16.224Z,27.43
2018-12-05T12:36:44.302Z,24.77
2018-12-05T12:39:12.315Z,20.97
2018-12-05T12:41:40.320Z,23.10
2018-12-05T12:44:08.303Z,25.07
2018-12-05T12:46:36.304Z,22.00
2018-12-05T12:49:04.273Z,27.07
2018-12-05T12:51:32.264Z,20.33
2018-12-05T12:54:00.217Z,28.77
2018-12-05T12:56:28.187Z,19.20
2018-12-05T12:58:56.247Z,25.93
2018-12-05T13:01:24.269Z,24.80
2018-12-05T13:03:52.240Z,25.50
2018-12-05T13:06:20.225Z,23.23
2018-12-05T13:08:48.240Z,24.07
2018-12-05T13:11:16.202Z,25.27
2018-12-05T13:13:44.265Z,21.90
2018-12-05T13:16:12.330Z,21.83
2018-12-05T13:18:40.287Z,21.63
2018-12-05T13:21:08.272Z,23.83
2018-12-05T13:23:36.236Z,25.33
2018-12-05T13:26:04.205Z,21.83
2018-12-05T13:28:32.177Z,21.37
2018-12-05T13:31:00.376Z,24.40
2018-12-05T13:33:28.431Z,25.10
2018-12-05T13:35:56.455Z,25.10
2018-12-05T13:38:24.469Z,22.87
2018-12-05T13:40:52.416Z,28.10
2018-12-05T13:43:20.397Z,24.40
2018-12-05T13:45:48.407Z,27.63
2018-12-05T13:48:16.397Z,26.20
2018-12-05T13:50:44.409Z,23.40
2018-12-05T13:53:12.534Z,28.07
2018-12-05T13:55:40.565Z,24.80
2018-12-05T13:58:08.702Z,22.00
2018-12-05T14:00:36.681Z,26.77
2018-12-05T14:03:04.725Z,26.07
2018-12-05T14:05:32.715Z,29.53
2018-12-05T14:08:00.673Z,26.23
2018-12-05T14:10:28.641Z,24.30
2018-12-05T14:12:58.270Z,29.70
2018-12-05T14:15:26.283Z,32.40
2018-12-05T14:18:01.194Z,29.43
2018-12-05T14:20:24.229Z,28.30
2018-12-05T14:22:52.332Z,31.20
2018-12-05T14:25:20.294Z,37.83
2018-12-05T14:27:48.269Z,30.13
2018-12-05T14:30:16.273Z,22.07
2018-12-05T14:32:44.405Z,27.77
2018-12-05T14:35:12.380Z,24.07
2018-12-05T14:37:40.453Z,29.30
2018-12-05T14:40:08.412Z,24.27
2018-12-05T14:42:36.401Z,23.83
2018-12-05T14:45:04.862Z,17.97
2018-12-05T14:47:32.896Z,16.73
2018-12-05T14:50:00.920Z,22.20
2018-12-05T14:52:28.946Z,25.20
2018-12-05T14:54:56.931Z,24.17
2018-12-05T14:57:24.925Z,26.20
2018-12-05T14:59:52.902Z,21.83
2018-12-05T15:02:20.921Z,28.70
2018-12-05T15:04:48.933Z,29.83
2018-12-05T15:07:17.007Z,30.73
2018-12-05T15:09:45.013Z,23.87
2018-12-05T15:12:13.104Z,28.40
2018-12-05T15:14:41.064Z,26.70
2018-12-05T15:17:09.029Z,21.27
2018-12-05T15:19:37.022Z,24.57
2018-12-05T15:22:04.969Z,17.87
2018-12-05T15:24:33.102Z,20.77
2018-12-05T15:27:01.112Z,18.33
2018-12-05T15:29:29.165Z,20.93
2018-12-05T15:31:57.265Z,22.10
2018-12-05T15:34:25.357Z,20.23
2018-12-05T15:36:53.322Z,20.03
2018-12-05T15:39:21.271Z,15.10
2018-12-05T15:41:49.345Z,19.63
2018-12-05T15:44:17.391Z,17.33
2018-12-05T15:46:45.357Z,19.67
2018-12-05T15:49:13.353Z,18.17
2018-12-05T15:51:41.388Z,14.00
2018-12-05T15:54:09.492Z,17.97
2018-12-05T15:56:37.511Z,20.10
2018-12-05T15:59:05.607Z,16.20
2018-12-05T16:01:33.661Z,17.13
2018-12-05T16:04:01.725Z,13.90
2018-12-05T16:06:30.601Z,24.07
2018-12-05T16:08:58.574Z,19.97
2018-12-05T16:11:26.568Z,17.70
2018-12-05T16:13:54.532Z,15.73
2018-12-05T16:16:22.546Z,15.83
2018-12-05T16:18:50.561Z,15.47
2018-12-05T16:21:18.569Z,22.63
2018-12-05T16:23:46.520Z,20.53
2018-12-05T16:26:14.534Z,20.10
2018-12-05T16:28:42.563Z,18.43
2018-12-05T16:31:10.568Z,12.73
2018-12-05T16:33:38.613Z,18.70
2018-12-05T16:36:11.145Z,12.87
2018-12-05T16:38:36.492Z,14.93
2018-12-05T16:41:04.485Z,21.27
2018-12-05T16:43:32.433Z,16.60
2018-12-05T16:48:43.018Z,14.93
2018-12-05T16:51:10.964Z,13.57
2018-12-05T16:53:38.941Z,17.53
2018-12-05T16:56:06.920Z,18.70
2018-12-05T16:58:34.890Z,20.67
2018-12-05T17:01:02.891Z,18.57
2018-12-05T17:03:30.920Z,22.40
2018-12-05T17:05:58.885Z,13.30
2018-12-05T17:08:26.864Z,11.83
2018-12-05T17:10:54.851Z,12.23
2018-12-05T17:13:22.856Z,11.30
2018-12-05T17:15:50.816Z,12.67
2018-12-05T17:18:18.912Z,13.93
2018-12-05T17:20:46.900Z,12.40
2018-12-05T17:23:14.890Z,15.00
2018-12-05T17:25:44.046Z,13.97
2018-12-05T17:28:12.074Z,15.97
2018-12-05T17:30:40.033Z,13.27
2018-12-05T17:33:08.016Z,17.73
2018-12-05T17:35:36.064Z,10.30
2018-12-05T17:38:04.146Z,17.83
2018-12-05T17:40:32.272Z,17.00
2018-12-05T17:43:00.233Z,14.13
2018-12-05T17:45:28.184Z,13.00
2018-12-05T17:47:56.203Z,12.53
2018-12-05T17:50:24.164Z,14.57
2018-12-05T17:52:52.125Z,11.27
2018-12-05T17:55:20.098Z,13.60
2018-12-05T17:57:48.068Z,15.83
2018-12-05T18:00:16.024Z,16.60
2018-12-05T18:02:43.985Z,13.77
2018-12-05T18:05:12.054Z,11.10
2018-12-05T18:07:40.118Z,11.80
2018-12-05T18:10:08.142Z,18.07
2018-12-05T18:12:36.146Z,10.93
2018-12-05T18:15:04.896Z,15.33
2018-12-05T18:17:32.860Z,11.47
2018-12-05T18:20:00.800Z,14.47
2018-12-05T18:22:28.762Z,15.40
2018-12-05T18:24:56.755Z,12.90
2018-12-05T18:27:24.735Z,10.73
2018-12-05T18:29:53.237Z,10.87
2018-12-05T18:32:21.210Z,12.50
2018-12-05T18:34:49.193Z,17.13
2018-12-05T18:37:17.179Z,16.03
2018-12-05T18:39:45.118Z,14.43
2018-12-05T18:42:18.089Z,14.33
2018-12-05T18:44:46.162Z,15.20
2018-12-05T18:47:14.214Z,13.20
2018-12-05T18:49:42.201Z,11.07
2018-12-05T18:52:10.249Z,13.50
2018-12-05T18:54:38.216Z,12.27
2018-12-05T18:57:09.436Z,12.07
2018-12-05T18:59:36.206Z,11.63
2018-12-05T19:02:04.247Z,10.93
2018-12-05T19:04:32.205Z,13.40
2018-12-05T19:07:00.207Z,13.57
2018-12-05T19:09:28.181Z,10.53
2018-12-05T19:11:56.219Z,12.23
2018-12-05T19:14:30.133Z,19.63
2018-12-05T19:16:58.108Z,16.37
2018-12-05T19:19:26.070Z,12.93
2018-12-05T19:21:54.081Z,14.53
2018-12-05T19:24:22.123Z,15.57
2018-12-05T19:26:50.217Z,18.50
2018-12-05T19:29:18.784Z,19.90
2018-12-05T19:31:46.893Z,11.97
2018-12-05T19:34:14.871Z,12.73
2018-12-05T19:36:42.849Z,20.63
2018-12-05T19:39:10.800Z,12.53
2018-12-05T19:41:38.756Z,12.20
2018-12-05T19:44:06.721Z,10.87
2018-12-05T19:46:34.721Z,18.53
2018-12-05T19:49:02.733Z,16.80
2018-12-05T19:51:30.707Z,12.93
2018-12-05T19:53:58.675Z,14.43
2018-12-05T19:56:26.695Z,13.80
2018-12-05T20:01:37.212Z,13.17
2018-12-05T20:04:05.203Z,11.80
2018-12-05T20:06:33.152Z,11.93
2018-12-05T20:09:01.181Z,11.60
2018-12-05T20:11:34.121Z,12.13
2018-12-05T20:14:02.138Z,19.47
2018-12-05T20:16:30.077Z,12.70
2018-12-05T20:18:58.129Z,10.93
2018-12-05T20:21:26.178Z,13.17
2018-12-05T20:23:54.175Z,10.33
2018-12-05T20:26:22.136Z,12.30
2018-12-05T20:28:50.082Z,13.17
2018-12-05T20:31:18.045Z,17.97
2018-12-05T20:33:46.012Z,13.60
2018-12-05T20:36:13.962Z,14.20
2018-12-05T20:38:41.922Z,13.80
2018-12-05T20:41:09.970Z,18.80
2018-12-05T20:43:38.056Z,13.10
2018-12-05T20:46:06.011Z,14.90
2018-12-05T20:48:34.085Z,9.27
2018-12-05T20:51:02.042Z,16.50
2018-12-05T20:53:30.005Z,16.47
2018-12-05T20:55:58.020Z,13.27
2018-12-05T20:58:25.965Z,11.37
2018-12-05T21:00:54.004Z,12.00
2018-12-05T21:03:22.014Z,13.07
2018-12-05T21:05:49.979Z,13.67
2018-12-05T21:08:17.974Z,11.23
2018-12-05T21:10:46.025Z,12.63
2018-12-05T21:13:13.992Z,12.83
2018-12-05T21:15:41.934Z,12.93
2018-12-05T21:18:10.006Z,14.40
2018-12-05T21:20:37.958Z,17.07
2018-12-05T21:26:12.574Z,16.23
2018-12-05T21:28:40.546Z,18.27
2018-12-05T21:31:08.508Z,15.57
2018-12-05T21:33:36.477Z,19.57
2018-12-05T21:36:04.494Z,14.20
2018-12-05T21:38:32.514Z,14.73
2018-12-05T21:41:00.537Z,16.07
2018-12-05T21:43:28.545Z,13.53
2018-12-05T21:45:56.497Z,16.20
2018-12-05T21:48:24.469Z,18.27
2018-12-05T21:50:52.465Z,14.60
2018-12-05T21:53:20.412Z,14.03
2018-12-05T21:55:48.382Z,17.27
2018-12-05T21:58:16.433Z,17.00
2018-12-05T22:00:44.402Z,15.73
2018-12-05T22:03:12.383Z,15.73
2018-12-05T22:05:40.341Z,15.87
2018-12-05T22:08:08.312Z,13.63
2018-12-05T22:10:36.277Z,17.57
2018-12-05T22:13:04.265Z,13.27
2018-12-05T22:15:32.308Z,17.07
2018-12-05T22:18:00.275Z,18.47
2018-12-05T22:20:29.734Z,18.57
2018-12-05T22:22:58.002Z,16.50
2018-12-05T22:25:25.962Z,15.80
2018-12-05T22:27:54.009Z,14.73
2018-12-05T22:30:22.110Z,18.40
2018-12-05T22:32:50.121Z,16.47
2018-12-05T22:35:18.093Z,14.27
2018-12-05T22:37:46.093Z,9.87
2018-12-05T22:40:14.109Z,15.63
2018-12-05T22:42:42.164Z,10.27
2018-12-05T22:45:10.116Z,13.50
2018-12-05T22:47:38.088Z,16.13
2018-12-05T22:50:06.090Z,14.77
2018-12-05T22:52:34.036Z,17.83
2018-12-05T22:55:02.009Z,13.30
2018-12-05T22:57:30.209Z,16.30
2018-12-05T22:59:58.201Z,14.83
2018-12-05T23:02:26.165Z,12.07
2018-12-05T23:04:54.210Z,14.33
2018-12-05T23:07:22.152Z,9.40
2018-12-05T23:09:50.224Z,9.17
2018-12-05T23:12:18.261Z,17.63
2018-12-05T23:14:46.217Z,18.67
2018-12-05T23:17:14.211Z,13.47
2018-12-05T23:19:42.198Z,12.80
2018-12-05T23:22:10.268Z,12.13
2018-12-05T23:24:38.225Z,16.77
2018-12-05T23:27:06.282Z,13.47
2018-12-05T23:29:34.318Z,15.07
2018-12-05T23:32:02.284Z,11.03
2018-12-05T23:34:30.234Z,12.33
2018-12-05T23:36:58.292Z,19.00
2018-12-05T23:39:26.313Z,16.93
2018-12-05T23:41:54.260Z,13.53
2018-12-05T23:44:22.232Z,11.47
2018-12-05T23:46:50.210Z,13.27
2018-12-05T23:49:18.155Z,19.83
2018-12-05T23:51:51.053Z,16.07
2018-12-05T23:54:19.092Z,12.00
2018-12-05T23:56:47.050Z,12.77
2018-12-05T23:59:15.008Z,10.97
